Time;durP1;ratioP1;P1;durP2;ratioP2;P2;SDS_P1;SDS_P2;PMS_P1;PMS_P2;Temp;Humidity;BMP_temperature;BMP_pressure;BME280_temperature;BME280_humidity;BME280_pressure;Samples;Min_cycle;Max_cycle;Signal;HPM_P1;HPM_P2
2020/12/21 00:01:50;;;;;;;10.90;9.30;;;4.70;99.90;;;2.63;100.00;101117.06;5004609;27;100252;-69
2020/12/21 00:04:17;;;;;;;11.97;10.10;;;4.80;99.90;;;2.56;100.00;101106.94;5004983;27;99925;-68
2020/12/21 00:06:44;;;;;;;12.00;9.90;;;4.90;99.90;;;2.56;100.00;101107.78;5002329;27;103027;-68
2020/12/21 00:09:11;;;;;;;11.00;9.70;;;4.70;99.90;;;2.59;100.00;101117.34;5003917;27;100174;-69
2020/12/21 00:11:40;;;;;;;11.93;10.53;;;4.50;99.90;;;2.55;100.00;101118.44;5004850;27;100268;-68
2020/12/21 00:14:09;;;;;;;13.73;10.40;;;4.80;99.90;;;2.51;100.00;101110.69;5024399;27;100647;-68
2020/12/21 00:16:38;;;;;;;12.40;10.20;;;4.50;99.90;;;2.49;100.00;101112.53;5024442;27;100460;-69
2020/12/21 00:19:06;;;;;;;11.23;10.00;;;4.60;99.90;;;2.49;100.00;101111.69;5024276;27;100305;-69
2020/12/21 00:21:33;;;;;;;10.77;9.30;;;4.70;99.90;;;2.49;100.00;101111.69;5004119;27;100289;-68
2020/12/21 00:24:00;;;;;;;11.43;10.23;;;4.60;99.90;;;2.49;100.00;101114.34;5021018;27;101355;-68
2020/12/21 00:26:26;;;;;;;11.57;10.37;;;4.50;99.90;;;2.50;100.00;101116.91;5024779;27;100979;-69
2020/12/21 00:28:53;;;;;;;11.13;9.87;;;4.70;99.90;;;2.46;100.00;101120.66;5024658;27;100217;-69
2020/12/21 00:31:24;;;;;;;12.50;10.67;;;4.60;99.90;;;2.46;100.00;101125.94;5024634;27;100108;-68
2020/12/21 00:33:59;;;;;;;11.03;9.90;;;4.40;99.90;;;2.47;100.00;101122.34;5023854;27;100770;-68
2020/12/21 00:36:27;;;;;;;11.77;10.00;;;4.60;99.90;;;2.44;100.00;101122.53;5024078;27;100573;-67
2020/12/21 00:38:55;;;;;;;11.57;10.37;;;4.50;99.90;;;2.41;100.00;101116.56;5023890;27;100033;-69
2020/12/21 00:41:24;;;;;;;12.70;10.37;;;4.40;99.90;;;2.40;100.00;101114.88;5018697;27;99918;-69
2020/12/21 00:43:54;;;;;;;14.13;10.97;;;4.50;99.90;;;2.31;100.00;101116.25;5005304;27;100777;-68
2020/12/21 00:46:23;;;;;;;12.60;10.03;;;4.50;99.90;;;2.30;100.00;101125.09;5007522;27;100525;-68
2020/12/21 00:48:52;;;;;;;13.43;10.80;;;5.40;99.90;;;2.25;100.00;101119.19;5019774;27;99814;-69
2020/12/21 00:51:19;;;;;;;13.03;10.40;;;4.40;99.90;;;2.24;100.00;101122.78;5013111;27;100313;-67
2020/12/21 00:53:48;;;;;;;11.83;10.47;;;4.40;99.90;;;2.28;100.00;101128.75;5006759;27;101334;-68
2020/12/21 00:56:20;;;;;;;12.70;11.40;;;4.40;99.90;;;2.29;100.00;101122.53;5006916;27;101151;-69
2020/12/21 00:58:50;;;;;;;14.27;11.17;;;4.30;99.90;;;2.30;100.00;101124.25;5006835;27;99981;-68
2020/12/21 01:01:20;;;;;;;13.70;10.63;;;4.30;99.90;;;2.29;100.00;101125.19;5006781;27;100078;-68
2020/12/21 01:03:47;;;;;;;14.63;11.20;;;4.30;99.90;;;2.26;100.00;101128.84;5007200;27;100057;-69
2020/12/21 01:06:16;;;;;;;12.80;10.17;;;4.40;99.90;;;2.25;100.00;101128.91;5007156;27;101027;-68
2020/12/21 01:08:45;;;;;;;14.67;11.20;;;4.50;99.90;;;2.22;100.00;101137.88;5009007;27;100384;-68
2020/12/21 01:11:16;;;;;;;14.87;11.67;;;4.30;99.90;;;2.21;100.00;101128.25;5027250;27;99961;-69
2020/12/21 01:13:47;;;;;;;13.80;11.73;;;4.40;99.90;;;2.21;100.00;101130.03;5026642;27;100304;-69
2020/12/21 01:16:14;;;;;;;15.00;12.07;;;4.30;99.90;;;2.17;100.00;101135.47;5012342;27;101466;-69
2020/12/21 01:18:41;;;;;;;13.53;11.60;;;4.40;99.90;;;2.16;100.00;101128.50;5018500;27;100327;-70
2020/12/21 01:21:07;;;;;;;14.83;12.13;;;4.40;99.90;;;2.14;100.00;101129.50;5006974;27;100032;-69
2020/12/21 01:23:35;;;;;;;15.07;11.60;;;4.20;99.90;;;2.11;100.00;101127.03;5005636;27;101902;-70
2020/12/21 01:26:02;;;;;;;13.50;11.80;;;4.10;99.90;;;2.07;100.00;101128.16;5006837;27;101341;-70
2020/12/21 01:28:29;;;;;;;15.23;11.43;;;4.00;99.90;;;2.05;100.00;101140.56;5006673;27;100168;-69
2020/12/21 01:30:56;;;;;;;15.57;11.17;;;4.20;99.90;;;2.02;100.00;101132.81;5007023;27;100209;-69
2020/12/21 01:33:22;;;;;;;14.07;11.93;;;4.30;99.90;;;2.01;100.00;101136.38;5006213;27;100758;-70
2020/12/21 01:35:49;;;;;;;16.27;12.87;;;4.10;99.90;;;2.01;100.00;101137.25;5006427;27;100469;-70
2020/12/21 01:38:16;;;;;;;17.03;12.73;;;4.10;99.90;;;1.99;100.00;101138.25;5007008;27;99961;-69
2020/12/21 01:40:43;;;;;;;16.83;12.60;;;4.10;99.90;;;1.97;100.00;101140.16;5007063;27;100186;-69
2020/12/21 01:43:10;;;;;;;15.17;12.37;;;4.00;99.90;;;1.93;100.00;101144.72;5006986;27;100847;-70
2020/12/21 01:45:36;;;;;;;18.60;14.00;;;4.10;99.90;;;1.90;100.00;101142.25;5008338;27;101093;-70
2020/12/21 01:48:03;;;;;;;19.20;14.07;;;4.00;99.90;;;1.87;100.00;101137.13;5005765;27;100183;-70
2020/12/21 01:50:30;;;;;;;17.80;14.30;;;4.10;99.90;;;1.87;100.00;101134.50;5007153;27;100062;-70
2020/12/21 01:52:56;;;;;;;17.23;13.80;;;4.10;99.90;;;1.84;100.00;101136.47;5006375;27;100963;-69
2020/12/21 01:55:23;;;;;;;17.23;13.07;;;4.10;99.90;;;1.84;100.00;101137.31;5006115;27;101436;-69
2020/12/21 01:57:51;;;;;;;20.27;13.93;;;4.10;99.90;;;1.88;100.00;101144.13;5006751;27;100071;-69
2020/12/21 02:00:18;;;;;;;20.07;14.60;;;3.90;99.90;;;1.79;100.00;101140.19;5005707;27;100105;-67
2020/12/21 02:02:45;;;;;;;18.63;15.07;;;4.00;99.90;;;1.78;100.00;101148.19;5006285;27;101267;-71
2020/12/21 02:05:11;;;;;;;17.57;13.70;;;4.00;99.90;;;1.84;100.00;101145.22;5013644;27;100807;-70
2020/12/21 02:07:38;;;;;;;17.33;13.93;;;3.80;99.90;;;1.84;100.00;101142.59;5039970;27;100256;-69
2020/12/21 02:10:08;;;;;;;17.53;14.20;;;3.90;99.90;;;1.84;100.00;101139.97;5020579;27;100189;-68
2020/12/21 02:12:34;;;;;;;18.80;14.93;;;3.90;99.90;;;1.80;100.00;101141.91;5009121;27;101023;-70
2020/12/21 02:15:01;;;;;;;18.43;13.93;;;3.90;99.90;;;1.82;100.00;101139.19;5026304;27;100958;-70
2020/12/21 02:17:28;;;;;;;20.10;14.47;;;3.90;99.90;;;1.81;100.00;101137.47;5026224;27;100102;-68
2020/12/21 02:19:55;;;;;;;19.77;14.23;;;3.80;99.90;;;1.79;100.00;101137.56;5026406;27;100142;-70
2020/12/21 02:22:24;;;;;;;18.87;14.53;;;3.80;99.90;;;1.74;100.00;101126.38;5026467;27;100089;-70
2020/12/21 02:24:50;;;;;;;21.60;15.43;;;3.90;99.90;;;1.76;100.00;101132.44;5025206;27;100801;-70
2020/12/21 02:27:17;;;;;;;19.03;14.87;;;3.90;99.90;;;1.74;100.00;101139.56;5026124;27;100134;-70
2020/12/21 02:29:44;;;;;;;20.53;15.07;;;3.60;99.90;;;1.75;100.00;101138.63;5026005;27;101585;-70
2020/12/21 02:32:10;;;;;;;21.57;15.27;;;3.80;99.90;;;1.78;100.00;101133.19;5025597;27;101457;-71
2020/12/21 02:34:37;;;;;;;20.07;15.07;;;3.80;99.90;;;1.78;100.00;101127.06;5026229;27;102383;-69
2020/12/21 02:37:03;;;;;;;20.23;15.47;;;3.60;99.90;;;1.78;100.00;101135.84;5007901;27;100005;-69
2020/12/21 02:39:31;;;;;;;20.10;15.30;;;3.70;99.90;;;1.79;100.00;101127.00;5006148;27;99999;-70
2020/12/21 02:41:58;;;;;;;21.93;15.83;;;3.80;99.90;;;1.77;100.00;101130.66;5007022;27;101037;-70
2020/12/21 02:44:24;;;;;;;21.10;16.00;;;3.60;99.90;;;1.76;100.00;101134.22;5006767;27;101273;-70
2020/12/21 02:46:51;;;;;;;21.43;15.97;;;3.70;99.90;;;1.78;100.00;101140.25;5005269;27;100233;-70
2020/12/21 02:49:17;;;;;;;22.23;16.33;;;4.70;99.90;;;1.76;100.00;101132.44;5005975;27;100169;-70
2020/12/21 02:51:44;;;;;;;21.07;15.83;;;3.50;99.90;;;1.77;100.00;101126.22;5005653;27;101045;-69
2020/12/21 02:54:10;;;;;;;21.17;15.40;;;3.80;99.90;;;1.76;100.00;101128.94;5006032;27;100389;-70
2020/12/21 02:56:38;;;;;;;20.37;15.30;;;4.40;99.90;;;1.74;100.00;101134.28;5005641;27;100136;-69
2020/12/21 02:59:12;;;;;;;20.33;15.53;;;4.50;99.90;;;1.73;100.00;101134.41;5005420;27;100116;-70
2020/12/21 03:01:38;;;;;;;23.83;15.70;;;3.60;99.90;;;1.68;100.00;101136.41;5004318;27;101285;-69
2020/12/21 03:04:05;;;;;;;18.80;14.00;;;3.70;99.90;;;1.73;100.00;101123.84;5014719;27;100589;-69
2020/12/21 03:06:31;;;;;;;21.70;15.57;;;3.10;99.90;;;1.74;100.00;101128.16;5014547;27;100143;-68
2020/12/21 03:08:58;;;;;;;20.17;15.63;;;3.50;99.90;;;1.72;100.00;101135.31;5008132;27;100130;-67
2020/12/21 03:11:24;;;;;;;21.23;15.63;;;3.50;99.90;;;1.73;100.00;101142.31;5025194;27;100593;-70
2020/12/21 03:13:55;;;;;;;22.50;14.70;;;3.70;99.90;;;1.68;100.00;101144.34;5025474;27;100761;-69
2020/12/21 03:16:23;;;;;;;22.23;15.70;;;3.60;99.90;;;1.69;100.00;101136.34;5022952;27;100225;-69
2020/12/21 03:18:50;;;;;;;22.30;15.53;;;3.50;99.90;;;1.75;100.00;101143.06;5025220;27;100249;-68
2020/12/21 03:21:16;;;;;;;22.10;16.03;;;3.60;99.90;;;1.72;100.00;101137.97;5025384;27;100994;-67
2020/12/21 03:23:44;;;;;;;22.00;16.23;;;3.80;99.90;;;1.72;100.00;101133.53;5025100;27;101104;-71
2020/12/21 03:26:11;;;;;;;21.43;15.20;;;4.50;99.90;;;1.71;100.00;101142.38;5025143;27;100082;-70
2020/12/21 03:28:37;;;;;;;21.10;15.53;;;3.60;99.90;;;1.68;100.00;101142.53;5023488;27;100211;-70
2020/12/21 03:31:05;;;;;;;21.80;15.77;;;3.60;99.90;;;1.69;100.00;101140.75;5024711;27;101616;-71
2020/12/21 03:33:31;;;;;;;20.90;15.03;;;3.60;99.90;;;1.73;100.00;101152.88;5025041;27;100756;-69
2020/12/21 03:35:58;;;;;;;21.10;15.77;;;3.60;99.90;;;1.77;100.00;101149.97;5024954;27;100256;-69
2020/12/21 03:38:25;;;;;;;21.17;15.13;;;4.30;99.90;;;1.77;100.00;101147.31;5011452;27;99980;-69
2020/12/21 03:40:52;;;;;;;18.83;14.47;;;4.40;99.90;;;1.79;100.00;101153.38;5004615;27;100595;-70
2020/12/21 03:43:19;;;;;;;19.23;14.30;;;2.40;99.90;;;1.80;100.00;101156.88;5004958;27;100473;-69
2020/12/21 03:45:46;;;;;;;19.73;14.90;;;3.80;99.90;;;1.82;100.00;101140.97;5006228;27;100082;-69
2020/12/21 03:48:14;;;;;;;20.97;14.90;;;3.80;99.90;;;1.83;100.00;101142.66;5004656;27;100029;-69
2020/12/21 03:50:41;;;;;;;20.37;14.80;;;3.80;99.90;;;1.83;100.00;101145.31;5004642;27;101094;-69
2020/12/21 03:53:08;;;;;;;20.47;14.97;;;3.10;99.90;;;1.84;100.00;101147.88;5005072;27;100224;-69
2020/12/21 03:55:34;;;;;;;21.13;15.20;;;4.00;99.90;;;1.85;100.00;101146.09;5014212;27;100169;-68
2020/12/21 03:58:01;;;;;;;20.30;14.73;;;3.90;99.90;;;1.83;100.00;101148.81;5026982;27;100032;-68
2020/12/21 04:00:28;;;;;;;19.60;15.33;;;3.80;99.90;;;1.87;100.00;101145.03;5023365;27;100697;-69
2020/12/21 04:02:54;;;;;;;20.37;15.50;;;4.00;99.90;;;1.95;100.00;101142.88;5007384;27;100360;-68
2020/12/21 04:05:22;;;;;;;19.70;15.03;;;4.10;99.90;;;1.96;100.00;101149.00;5008667;27;100284;-68
2020/12/21 04:07:49;;;;;;;38.60;15.87;;;4.00;99.90;;;2.18;100.00;101146.91;5025343;27;100506;-68
2020/12/21 04:10:16;;;;;;;23.90;15.90;;;3.90;99.90;;;2.02;100.00;101144.22;5024754;27;100839;-69
2020/12/21 04:12:43;;;;;;;21.27;15.03;;;4.10;99.90;;;2.04;100.00;101155.56;5023937;27;101392;-68
2020/12/21 04:15:10;;;;;;;20.53;15.13;;;4.10;99.90;;;2.22;100.00;101144.94;5022837;27;100006;-68
2020/12/21 04:17:36;;;;;;;23.53;15.83;;;4.10;99.90;;;2.15;100.00;101153.19;5024308;27;100102;-68
2020/12/21 04:20:03;;;;;;;21.23;14.97;;;5.30;99.90;;;2.04;100.00;101152.06;5021080;27;101823;-67
2020/12/21 04:22:31;;;;;;;20.53;14.93;;;4.00;99.90;;;2.09;100.00;101158.81;5022749;27;101063;-69
2020/12/21 04:24:57;;;;;;;21.13;15.10;;;4.30;99.90;;;2.09;100.00;101156.19;5024137;27;100448;-68
2020/12/21 04:27:24;;;;;;;20.57;14.27;;;4.20;99.90;;;2.08;100.00;101158.91;5024328;27;99975;-67
2020/12/21 04:29:50;;;;;;;19.20;13.37;;;4.20;99.90;;;2.13;100.00;101155.06;5024312;27;100912;-68
2020/12/21 04:32:17;;;;;;;19.30;14.37;;;4.10;99.90;;;2.11;100.00;101150.78;5024967;27;100393;-67
2020/12/21 04:34:43;;;;;;;19.13;13.73;;;4.10;99.90;;;2.13;100.00;101160.34;5022187;27;100111;-68
2020/12/21 04:37:10;;;;;;;18.47;13.27;;;4.60;99.90;;;2.09;100.00;101152.69;5023916;27;99937;-68
2020/12/21 04:39:37;;;;;;;21.23;15.03;;;4.30;99.90;;;2.17;100.00;101147.81;5023256;27;101411;-68
2020/12/21 04:42:04;;;;;;;19.23;13.77;;;4.30;99.90;;;2.19;100.00;101145.09;5024735;27;100321;-68
2020/12/21 04:44:30;;;;;;;20.33;13.80;;;3.00;99.90;;;2.11;100.00;101158.72;5024283;27;100625;-68
2020/12/21 04:46:58;;;;;;;19.43;13.67;;;4.30;99.90;;;2.07;100.00;101150.13;5024096;27;100138;-69
2020/12/21 04:49:26;;;;;;;19.73;14.37;;;4.30;99.90;;;2.07;100.00;101144.00;5023767;27;100737;-68
2020/12/21 04:51:53;;;;;;;17.23;13.03;;;4.40;99.90;;;2.13;100.00;101147.13;5007986;27;101250;-69
2020/12/21 04:54:21;;;;;;;21.93;14.73;;;4.40;99.90;;;2.13;100.00;101144.50;5003518;27;99995;-69
2020/12/21 04:56:48;;;;;;;20.03;13.97;;;4.30;99.90;;;2.16;100.00;101146.13;5004260;27;100290;-68
2020/12/21 04:59:15;;;;;;;19.43;14.17;;;4.20;99.90;;;2.13;100.00;101147.13;5003491;27;100990;-68
2020/12/21 05:01:42;;;;;;;19.53;14.07;;;4.50;99.90;;;2.11;100.00;101148.16;5004182;27;100303;-68
2020/12/21 05:04:09;;;;;;;20.73;15.43;;;4.30;99.90;;;2.11;100.00;101156.91;5022129;27;100115;-69
2020/12/21 05:06:35;;;;;;;18.57;13.67;;;4.40;99.90;;;2.06;100.00;101148.41;5024045;27;100093;-68
2020/12/21 05:09:05;;;;;;;20.83;13.90;;;4.40;99.90;;;2.09;100.00;101155.31;5023721;27;101108;-68
2020/12/21 05:11:33;;;;;;;17.70;13.13;;;4.30;99.90;;;2.11;100.00;101148.16;5024112;27;100041;-67
2020/12/21 05:14:09;;;;;;;18.97;13.67;;;4.20;99.90;;;2.16;100.00;101146.13;5024098;27;100075;-68
2020/12/21 05:16:37;;;;;;;17.77;13.37;;;4.30;99.90;;;2.10;100.00;101142.00;5023935;27;100162;-68
2020/12/21 05:19:04;;;;;;;20.23;13.87;;;4.30;99.90;;;2.07;100.00;101142.22;5023405;27;100541;-67
2020/12/21 05:21:33;;;;;;;19.77;13.27;;;4.20;99.90;;;2.05;100.00;101145.84;5019638;27;100942;-68
2020/12/21 05:24:03;;;;;;;19.07;13.27;;;4.70;99.90;;;1.99;100.00;101141.75;5008011;27;99779;-67
2020/12/21 05:26:31;;;;;;;19.60;14.20;;;4.20;99.90;;;1.95;100.00;101137.59;5008090;27;100030;-67
2020/12/21 05:28:59;;;;;;;19.63;14.17;;;4.20;99.90;;;1.95;100.00;101134.94;5005922;27;99983;-67
2020/12/21 05:31:28;;;;;;;21.87;13.83;;;4.00;99.90;;;1.86;100.00;101139.84;5007591;27;100967;-67
2020/12/21 05:33:55;;;;;;;18.43;14.20;;;3.90;99.90;;;1.77;100.00;101139.41;5024351;27;100033;-66
2020/12/21 05:36:24;;;;;;;18.70;13.53;;;3.80;99.90;;;1.77;100.00;101143.84;5026776;27;100037;-67
2020/12/21 05:38:59;;;;;;;20.60;14.40;;;3.70;99.90;;;1.74;100.00;101141.34;5007039;27;101007;-67
2020/12/21 05:41:26;;;;;;;22.33;14.43;;;3.70;99.90;;;1.67;100.00;101132.91;5024169;27;100907;-68
2020/12/21 05:43:54;;;;;;;18.47;14.13;;;3.70;99.90;;;1.64;100.00;101133.06;5030660;27;100183;-68
2020/12/21 05:46:23;;;;;;;23.83;14.60;;;3.60;99.90;;;1.63;100.00;101126.09;5025426;27;100156;-67
2020/12/21 05:48:53;;;;;;;19.63;14.40;;;3.80;99.90;;;1.51;100.00;101126.75;5024951;27;101604;-68
2020/12/21 05:51:25;;;;;;;21.80;14.87;;;3.60;99.90;;;1.49;100.00;101131.22;5006465;27;100460;-67
2020/12/21 05:53:54;;;;;;;19.17;13.63;;;3.50;99.90;;;1.49;100.00;101136.50;5005715;27;100324;-68
2020/12/21 05:56:23;;;;;;;20.40;14.40;;;3.40;99.90;;;1.46;100.00;101133.19;5005964;27;100226;-69
2020/12/21 05:58:51;;;;;;;22.70;14.60;;;3.30;99.90;;;1.47;100.00;101138.41;5013608;27;101241;-68
2020/12/21 06:01:19;;;;;;;22.83;15.00;;;3.50;99.90;;;1.48;100.00;101140.09;5024757;27;101701;-69
2020/12/21 06:03:48;;;;;;;21.63;15.07;;;3.50;99.90;;;1.46;100.00;101141.97;5026173;27;100201;-67
2020/12/21 06:06:18;;;;;;;22.27;14.87;;;3.30;99.90;;;1.43;100.00;101152.66;5026816;27;99913;-67
2020/12/21 06:08:48;;;;;;;20.73;14.10;;;3.20;99.90;;;1.36;100.00;101149.47;5024513;27;100863;-65
2020/12/21 06:11:17;;;;;;;17.07;12.80;;;3.20;99.90;;;1.29;100.00;101144.59;5027043;27;101215;-66
2020/12/21 06:13:55;;;;;;;19.57;14.33;;;3.30;99.90;;;1.35;100.00;101147.78;5024140;27;100229;-66
2020/12/21 06:16:23;;;;;;;19.53;13.03;;;3.40;99.90;;;1.40;100.00;101156.31;5013727;27;99871;-67
2020/12/21 06:19:04;;;;;;;18.43;13.57;;;3.20;99.90;;;1.37;100.00;101161.72;5024633;27;100797;-68
2020/12/21 06:21:33;;;;;;;20.23;13.30;;;3.20;99.90;;;1.35;100.00;101153.06;5026261;27;100311;-66
2020/12/21 06:24:01;;;;;;;18.33;13.20;;;3.10;99.90;;;1.27;100.00;101149.94;5024285;27;100325;-67
2020/12/21 06:26:36;;;;;;;18.30;13.37;;;3.20;99.90;;;1.31;100.00;101148.03;5024304;27;100234;-67
2020/12/21 06:29:08;;;;;;;22.87;14.27;;;3.20;99.90;;;1.31;100.00;101148.88;5005871;27;100581;-68
2020/12/21 06:31:44;;;;;;;19.43;12.80;;;4.30;99.90;;;1.26;100.00;101153.53;5006019;27;100273;-67
2020/12/21 06:34:14;;;;;;;19.20;13.10;;;3.20;99.90;;;1.42;100.00;101148.31;5005970;27;100122;-69
2020/12/21 06:36:42;;;;;;;19.97;13.23;;;3.10;99.90;;;1.33;100.00;101149.66;5008603;27;100138;-68
2020/12/21 06:39:10;;;;;;;19.80;13.57;;;3.00;99.90;;;1.45;100.00;101150.81;5024848;27;101360;-66
2020/12/21 06:41:37;;;;;;;18.37;13.03;;;3.10;99.90;;;1.41;100.00;101154.53;5026111;27;100774;-68
2020/12/21 06:44:05;;;;;;;18.10;12.77;;;3.10;99.90;;;1.41;100.00;101157.16;5025436;27;100243;-68
2020/12/21 06:46:34;;;;;;;18.30;13.07;;;3.10;99.90;;;1.49;100.00;101154.97;5008693;27;100383;-68
2020/12/21 06:49:17;;;;;;;23.17;13.10;;;3.20;99.90;;;1.48;100.00;101166.47;5020514;27;100255;-67
2020/12/21 06:51:48;;;;;;;18.27;13.10;;;3.20;99.90;;;1.47;100.00;101175.31;5003713;27;100367;-68
2020/12/21 06:54:18;;;;;;;17.23;12.33;;;3.30;99.90;;;1.48;100.00;101168.25;5002922;27;100093;-67
2020/12/21 06:56:46;;;;;;;18.03;12.33;;;3.40;99.90;;;1.54;100.00;101166.16;5022563;27;100305;-69
2020/12/21 06:59:16;;;;;;;22.40;13.30;;;3.40;99.90;;;1.52;100.00;101170.66;5023374;27;100548;-67
2020/12/21 07:01:46;;;;;;;19.60;12.87;;;3.50;99.90;;;1.61;100.00;101169.31;5023420;27;101415;-67
2020/12/21 07:04:18;;;;;;;16.70;12.07;;;3.50;99.90;;;1.64;100.00;101170.00;5005343;27;100102;-68
2020/12/21 07:06:46;;;;;;;19.50;12.17;;;3.30;99.90;;;1.68;100.00;101168.94;5004277;27;99952;-67
2020/12/21 07:09:16;;;;;;;17.87;12.73;;;3.60;99.90;;;1.64;100.00;101175.28;5013654;27;101467;-66
2020/12/21 07:11:43;;;;;;;16.80;11.97;;;3.60;99.90;;;1.66;100.00;101173.44;5002669;27;100421;-68
2020/12/21 07:14:13;;;;;;;18.20;11.63;;;3.70;99.90;;;1.63;100.00;101173.56;5017655;27;100379;-67
2020/12/21 07:16:40;;;;;;;16.33;11.50;;;3.70;99.90;;;1.58;100.00;101180.91;5009195;27;100328;-68
2020/12/21 07:19:11;;;;;;;16.60;11.77;;;3.60;99.90;;;1.63;100.00;101176.22;5010181;27;101192;-67
2020/12/21 07:21:38;;;;;;;16.57;12.67;;;4.60;99.90;;;1.59;100.00;101185.25;5023067;27;100394;-67
2020/12/21 07:24:08;;;;;;;18.20;12.30;;;4.30;99.90;;;1.54;100.00;101186.41;5012154;27;100427;-67
2020/12/21 07:26:36;;;;;;;17.70;12.27;;;3.50;99.90;;;1.62;100.00;101187.69;5006117;27;100153;-69
2020/12/21 07:29:04;;;;;;;17.63;12.43;;;3.50;99.90;;;1.53;100.00;101193.44;5013937;27;101133;-68
2020/12/21 07:31:32;;;;;;;20.27;12.90;;;3.50;99.90;;;1.45;100.00;101198.28;5020512;27;101767;-68
2020/12/21 07:34:01;;;;;;;19.73;13.07;;;3.50;99.90;;;1.48;100.00;101200.78;5022470;27;100004;-67
2020/12/21 07:36:29;;;;;;;17.77;11.80;;;3.50;99.90;;;1.52;100.00;101196.16;5020994;27;100307;-68
2020/12/21 07:39:07;;;;;;;29.70;13.30;;;3.70;99.90;;;1.57;100.00;101197.66;5003945;27;100378;-65
2020/12/21 07:41:36;;;;;;;18.33;12.50;;;3.30;99.90;;;1.49;100.00;101199.81;5002588;27;100878;-68
2020/12/21 07:44:08;;;;;;;22.13;14.40;;;3.30;99.90;;;1.43;100.00;101203.63;5017469;27;99883;-68
2020/12/21 07:46:52;;;;;;;20.40;13.97;;;3.70;99.90;;;1.46;100.00;101212.31;5022494;27;100356;-68
2020/12/21 07:50:29;;;;;;;20.87;14.23;;;3.40;99.90;;;1.49;100.00;101212.13;5021871;27;101307;-68
2020/12/21 07:52:56;;;;;;;19.57;13.80;;;3.20;99.90;;;1.45;100.00;101208.81;5014825;27;100654;-67
2020/12/21 07:55:24;;;;;;;21.67;14.77;;;3.20;99.90;;;1.51;100.00;101208.50;5018565;27;100115;-68
2020/12/21 07:57:54;;;;;;;19.07;12.67;;;3.20;99.90;;;1.58;100.00;101201.16;5009569;27;100084;-68
2020/12/21 08:00:31;;;;;;;18.90;12.83;;;3.20;99.90;;;1.61;100.00;101208.88;4998622;27;129716;-67
2020/12/21 08:03:00;;;;;;;17.07;11.83;;;3.60;99.90;;;1.68;100.00;101213.78;5002071;27;101445;-67
2020/12/21 08:05:27;;;;;;;18.40;12.57;;;3.40;99.90;;;1.74;100.00;101212.59;5019717;27;100172;-67
2020/12/21 08:07:59;;;;;;;18.20;12.63;;;3.50;99.90;;;1.80;100.00;101213.13;5022039;27;100074;-69
2020/12/21 08:10:29;;;;;;;54.87;16.30;;;3.40;99.90;;;1.98;100.00;101213.13;5022106;27;100829;-69
2020/12/21 08:12:56;;;;;;;20.63;13.20;;;3.60;99.90;;;1.86;100.00;101217.22;5015352;27;102044;-69
2020/12/21 08:15:23;;;;;;;17.60;12.00;;;3.80;99.90;;;1.92;100.00;101216.94;5015084;27;100320;-69
2020/12/21 08:17:52;;;;;;;17.77;12.67;;;3.70;99.90;;;1.99;100.00;101214.81;5004800;27;100112;-68
2020/12/21 08:20:21;;;;;;;22.10;17.00;;;4.00;99.90;;;2.03;100.00;101214.56;5022275;27;100803;-69
2020/12/21 08:22:47;;;;;;;22.30;14.70;;;3.80;99.90;;;2.08;100.00;101216.97;5023106;27;100794;-68
2020/12/21 08:25:15;;;;;;;24.83;15.70;;;3.90;99.90;;;2.14;100.00;101219.28;5010557;27;100262;-67
2020/12/21 08:27:48;;;;;;;20.90;14.40;;;4.00;99.90;;;2.18;100.00;101204.97;5019220;27;100317;-69
2020/12/21 08:30:19;;;;;;;20.13;14.27;;;4.10;99.90;;;2.24;100.00;101202.00;5022042;27;101009;-68
2020/12/21 08:32:46;;;;;;;25.83;16.80;;;4.00;99.90;;;2.26;100.00;101208.06;5022490;27;100734;-68
2020/12/21 08:35:14;;;;;;;22.10;14.13;;;4.20;99.90;;;2.33;100.00;101214.72;5001790;27;100082;-68
2020/12/21 08:37:41;;;;;;;19.57;12.33;;;4.20;99.90;;;2.37;100.00;101212.75;5002116;27;100182;-69
2020/12/21 08:40:12;;;;;;;19.10;13.30;;;5.40;99.90;;;2.52;100.00;101204.00;5001128;27;102282;-69
2020/12/21 08:42:39;;;;;;;17.83;12.23;;;4.30;99.90;;;2.71;100.00;101202.06;5001941;27;100951;-68
2020/12/21 08:45:09;;;;;;;19.40;12.47;;;4.60;99.90;;;3.01;100.00;101214.44;5002696;27;100439;-68
2020/12/21 08:47:36;;;;;;;18.67;13.00;;;4.80;99.90;;;3.20;100.00;101215.97;5022262;27;100047;-68
2020/12/21 08:50:03;;;;;;;16.67;12.57;;;5.30;99.90;;;3.04;100.00;101220.44;5021052;27;100697;-68
2020/12/21 08:52:36;;;;;;;18.07;12.67;;;5.60;99.90;;;3.02;100.00;101221.44;5020877;27;100808;-69
2020/12/21 08:55:05;;;;;;;18.13;13.33;;;5.60;99.90;;;3.03;100.00;101229.28;5019264;27;100448;-69
2020/12/21 08:57:32;;;;;;;20.33;13.07;;;5.80;99.90;;;3.17;100.00;101229.38;5021458;27;99991;-69
2020/12/21 08:59:59;;;;;;;19.27;13.73;;;7.10;99.90;;;3.06;100.00;101225.63;5009696;27;100737;-69
2020/12/21 09:02:28;;;;;;;16.47;12.67;;;6.00;99.90;;;3.07;100.00;101220.25;5004916;27;100021;-68
2020/12/21 09:04:54;;;;;;;19.20;13.80;;;5.90;99.90;;;3.17;100.00;101223.22;5005304;27;100171;-68
2020/12/21 09:07:21;;;;;;;18.60;12.90;;;6.00;99.90;;;3.15;100.00;101218.03;5007049;27;100232;-69
2020/12/21 09:09:48;;;;;;;20.63;12.53;;;6.00;99.90;;;3.16;100.00;101222.38;5025230;27;100850;-68
2020/12/21 09:12:15;;;;;;;17.93;11.43;;;5.80;99.90;;;3.24;100.00;101221.91;5025096;27;100458;-69
2020/12/21 09:14:42;;;;;;;16.30;11.83;;;5.80;99.90;;;3.33;100.00;101217.91;5012030;27;100143;-68
2020/12/21 09:17:30;;;;;;;18.97;15.07;;;6.00;99.90;;;3.37;100.00;101222.06;5022765;27;100149;-68
2020/12/21 09:19:59;;;;;;;17.97;12.73;;;5.90;99.90;;;3.42;100.00;101220.88;5023686;27;101208;-68
2020/12/21 09:22:26;;;;;;;16.90;11.90;;;5.90;99.90;;;3.61;100.00;101221.47;5018869;27;101244;-69
2020/12/21 09:24:53;;;;;;;18.23;12.83;;;6.10;99.90;;;3.90;100.00;101214.44;5017165;27;100373;-68
2020/12/21 09:27:20;;;;;;;16.30;11.53;;;6.40;99.90;;;4.32;100.00;101218.06;5004968;27;100123;-68
2020/12/21 09:29:47;;;;;;;13.57;10.33;;;6.70;99.90;;;4.32;100.00;101210.97;5009679;27;101771;-69
2020/12/21 09:32:13;;;;;;;18.60;13.67;;;7.20;99.90;;;4.31;100.00;101205.75;5008379;27;100352;-68
2020/12/21 09:34:41;;;;;;;15.07;11.87;;;7.50;99.90;;;4.54;100.00;101205.16;5004384;27;100207;-69
2020/12/21 09:37:12;;;;;;;17.40;11.20;;;7.80;99.90;;;4.52;100.00;101215.00;5004015;27;100297;-69
2020/12/21 09:39:39;;;;;;;15.13;10.40;;;8.10;99.90;;;4.65;100.00;101209.75;5003917;27;101158;-69
2020/12/21 09:42:09;;;;;;;14.57;11.27;;;8.30;99.90;;;4.51;100.00;101209.78;5009143;27;100097;-68
2020/12/21 09:44:36;;;;;;;15.63;11.30;;;8.70;99.90;;;4.51;100.00;101199.19;5023979;27;99997;-68
2020/12/21 09:47:02;;;;;;;16.90;12.93;;;8.70;99.90;;;4.63;100.00;101199.25;5024989;27;99962;-68
2020/12/21 09:49:32;;;;;;;15.07;10.93;;;8.80;99.90;;;4.82;100.00;101198.09;5015459;27;100869;-70
2020/12/21 09:52:00;;;;;;;18.33;12.30;;;9.20;99.90;;;5.01;100.00;101191.47;5022111;27;101137;-69
2020/12/21 09:54:26;;;;;;;16.77;10.37;;;9.30;99.90;;;5.11;100.00;101189.06;5011524;27;100516;-67
2020/12/21 09:56:53;;;;;;;14.50;10.93;;;9.70;99.90;;;5.22;100.00;101191.00;5003146;27;100167;-68
2020/12/21 09:59:20;;;;;;;13.03;10.10;;;9.80;99.90;;;5.25;100.00;101188.16;5003768;27;101263;-69
2020/12/21 10:01:47;;;;;;;17.33;12.17;;;10.00;99.90;;;5.27;100.00;101184.44;5003381;27;101045;-69
2020/12/21 10:04:14;;;;;;;17.03;12.73;;;10.50;99.90;;;5.36;100.00;101186.47;5009262;27;100276;-69
2020/12/21 10:06:50;;;;;;;16.87;12.17;;;10.40;99.90;;;5.48;100.00;101182.13;5023176;27;100227;-69